Time;durP1;ratioP1;P1;durP2;ratioP2;P2;SDS_P1;SDS_P2;PMS_P1;PMS_P2;Temp;Humidity;BMP_temperature;BMP_pressure;BME280_temperature;BME280_humidity;BME280_pressure;Samples;Min_cycle;Max_cycle;Signal;HPM_P1;HPM_P2
2022/05/08 00:00:14;;;;;;;22.83;12.95;;;;;;;9.08;93.00;102593.13;1031477;28;20368;-77
2022/05/08 00:00:46;;;;;;;18.33;12.57;;;;;;;9.14;93.60;102597.78;1034695;28;20358;-77
2022/05/08 00:01:18;;;;;;;20.27;12.32;;;;;;;9.07;93.19;102601.28;1035937;28;20300;-78
2022/05/08 00:01:50;;;;;;;18.60;13.13;;;;;;;9.14;93.09;102596.97;1039198;28;20864;-78
2022/05/08 00:02:22;;;;;;;21.77;12.88;;;;;;;9.18;93.59;102608.94;1038284;28;20307;-78
2022/05/08 00:02:54;;;;;;;19.17;12.18;;;;;;;9.21;93.22;102597.97;1036299;28;20293;-78
2022/05/08 00:03:26;;;;;;;18.77;12.75;;;;;;;9.15;93.09;102599.44;1034831;28;20343;-78
2022/05/08 00:03:58;;;;;;;22.55;13.45;;;;;;;9.11;93.65;102608.75;1035655;28;20375;-78
2022/05/08 00:04:29;;;;;;;25.13;12.98;;;;;;;9.27;93.27;102597.28;1040309;28;20378;-78
2022/05/08 00:05:02;;;;;;;17.13;12.18;;;;;;;9.23;93.17;102603.94;1038974;28;20300;-78
2022/05/08 00:05:34;;;;;;;17.90;12.30;;;;;;;9.29;93.21;102600.63;1035318;28;20308;-79
2022/05/08 00:06:10;;;;;;;20.50;13.48;;;;;;;9.28;93.30;102606.94;1035464;28;20307;-78
2022/05/08 00:06:42;;;;;;;22.98;12.00;;;;;;;9.21;93.43;102597.97;1037805;28;20307;-77
2022/05/08 00:07:14;;;;;;;22.95;12.50;;;;;;;9.25;93.06;102599.28;1039290;28;20806;-78
2022/05/08 00:07:45;;;;;;;15.82;12.07;;;;;;;9.18;93.21;102600.94;1039218;28;20300;-78
2022/05/08 00:08:17;;;;;;;22.60;15.25;;;;;;;9.26;92.92;102606.28;1040562;28;20292;-78
2022/05/08 00:08:48;;;;;;;23.67;13.30;;;;;;;9.23;93.15;102599.47;1042884;28;20307;-78
2022/05/08 00:09:21;;;;;;;20.95;12.80;;;;;;;9.17;92.94;102596.63;1043824;28;20635;-78
2022/05/08 00:09:52;;;;;;;16.48;12.95;;;;;;;9.12;93.34;102596.28;1044276;28;20322;-78
2022/05/08 00:10:24;;;;;;;19.23;12.02;;;;;;;9.12;93.41;102594.47;1043705;28;20303;-77
2022/05/08 00:10:56;;;;;;;14.98;10.63;;;;;;;9.14;93.53;102602.28;1044088;28;20307;-79
2022/05/08 00:11:28;;;;;;;22.98;12.50;;;;;;;9.12;93.56;102601.59;1044751;28;20310;-79
2022/05/08 00:12:00;;;;;;;20.05;10.95;;;;;;;9.15;93.40;102598.63;1039707;28;20705;-79
2022/05/08 00:12:31;;;;;;;18.08;11.13;;;;;;;9.20;93.05;102606.94;1040277;28;20307;-78
2022/05/08 00:13:03;;;;;;;13.60;10.45;;;;;;;9.17;93.71;102601.94;1039723;28;20292;-79
2022/05/08 00:13:35;;;;;;;18.42;12.20;;;;;;;9.14;92.85;102605.75;1040343;28;20292;-79
2022/05/08 00:14:07;;;;;;;21.20;11.93;;;;;;;9.17;93.33;102604.59;1043840;28;20390;-78
2022/05/08 00:14:46;;;;;;;18.50;11.27;;;;;;;9.18;93.32;102598.28;1043106;28;20390;-78
2022/05/08 00:15:18;;;;;;;17.55;11.43;;;;;;;9.20;93.28;102596.28;1043990;28;20657;-78
2022/05/08 00:15:50;;;;;;;19.77;10.93;;;;;;;9.24;93.03;102601.13;1043574;28;20796;-78
2022/05/08 00:16:21;;;;;;;24.33;13.05;;;;;;;9.17;93.27;102604.59;1043830;28;20647;-78
2022/05/08 00:16:53;;;;;;;18.95;11.73;;;;;;;9.19;93.33;102600.78;1035257;28;20312;-78
2022/05/08 00:17:25;;;;;;;16.35;11.25;;;;;;;9.14;93.34;102604.94;1034617;28;20304;-78
2022/05/08 00:17:56;;;;;;;25.80;12.50;;;;;;;9.09;92.76;102604.59;1034987;28;20407;-78
2022/05/08 00:18:29;;;;;;;19.35;11.38;;;;;;;9.12;93.13;102610.41;1036877;28;20293;-78
2022/05/08 00:19:00;;;;;;;22.13;12.10;;;;;;;9.10;93.57;102603.59;1043056;28;20815;-77
2022/05/08 00:19:32;;;;;;;23.95;11.88;;;;;;;9.12;93.24;102604.28;1043776;28;20785;-78
2022/05/08 00:20:06;;;;;;;18.50;12.65;;;;;;;9.16;92.97;102600.28;1044048;28;20295;-79
2022/05/08 00:20:37;;;;;;;22.77;11.73;;;;;;;9.13;93.11;102601.44;1039101;28;20315;-78
2022/05/08 00:21:10;;;;;;;15.20;11.95;;;;;;;9.07;93.09;102601.28;1039132;28;20337;-77
2022/05/08 00:21:42;;;;;;;21.63;13.25;;;;;;;9.06;92.34;102602.28;1040136;28;20295;-78
2022/05/08 00:22:14;;;;;;;15.27;10.50;;;;;;;9.11;92.93;102607.91;1040970;28;20292;-78
2022/05/08 00:23:04;;;;;;;22.98;12.98;;;;;;;9.07;93.15;102601.28;1044276;28;20294;-79
2022/05/08 00:23:38;;;;;;;17.88;10.98;;;;;;;9.16;92.60;102600.28;1044307;28;20303;-79
2022/05/08 00:24:10;;;;;;;24.33;11.02;;;;;;;9.10;93.05;102606.25;1041495;28;20841;-79
2022/05/08 00:24:42;;;;;;;20.63;11.50;;;;;;;9.11;92.43;102607.91;1039556;28;20310;-78
2022/05/08 00:25:13;;;;;;;21.60;12.45;;;;;;;9.17;92.66;102604.59;1031354;28;20338;-79
2022/05/08 00:25:45;;;;;;;27.45;10.93;;;;;;;9.13;92.30;102611.25;1025236;28;20302;-79
2022/05/08 00:26:18;;;;;;;21.25;10.65;;;;;;;9.14;92.85;102605.75;1034694;28;20301;-79
2022/05/08 00:26:50;;;;;;;16.92;10.35;;;;;;;9.12;92.64;102613.06;1038199;28;20382;-78
2022/05/08 00:27:22;;;;;;;20.95;12.75;;;;;;;9.11;92.68;102608.75;1043833;28;20720;-79
2022/05/08 00:27:53;;;;;;;23.85;11.63;;;;;;;9.15;92.93;102609.25;1043189;28;20295;-79
2022/05/08 00:28:25;;;;;;;19.30;10.75;;;;;;;9.18;92.10;102609.75;1043670;28;20843;-79
2022/05/08 00:28:57;;;;;;;19.90;11.07;;;;;;;9.10;92.34;102606.25;1043788;28;20907;-79
2022/05/08 00:29:29;;;;;;;27.90;11.73;;;;;;;8.99;92.12;102610.88;1044005;28;20665;-79
2022/05/08 00:30:01;;;;;;;19.20;9.98;;;;;;;9.04;93.05;102612.22;1043982;28;20342;-79
2022/05/08 00:30:33;;;;;;;19.20;12.35;;;;;;;9.08;92.52;102616.22;1037719;28;20359;-79
2022/05/08 00:31:09;;;;;;;20.35;11.65;;;;;;;9.06;92.33;102612.91;1035530;28;20312;-79
2022/05/08 00:31:41;;;;;;;20.70;10.93;;;;;;;9.02;92.62;102608.88;1036058;28;20296;-79
2022/05/08 00:32:13;;;;;;;26.55;12.52;;;;;;;9.06;92.84;102611.06;1040754;28;20327;-78
2022/05/08 00:32:45;;;;;;;19.90;10.65;;;;;;;9.02;92.42;102619.50;1043808;28;20292;-78
2022/05/08 00:33:17;;;;;;;25.83;12.20;;;;;;;9.03;93.25;102610.53;1043649;28;20661;-79
2022/05/08 00:33:48;;;;;;;18.27;11.70;;;;;;;9.05;92.26;102612.06;1044107;28;22146;-79
2022/05/08 00:34:20;;;;;;;21.08;11.43;;;;;;;9.08;92.96;102608.25;1044357;28;20666;-78
2022/05/08 00:34:52;;;;;;;17.13;10.85;;;;;;;9.06;93.01;102610.25;1043761;28;20295;-79
2022/05/08 00:35:23;;;;;;;18.80;11.13;;;;;;;9.07;92.82;102615.41;1039164;28;20308;-79
2022/05/08 00:35:55;;;;;;;15.60;11.05;;;;;;;9.04;92.73;102606.88;1039638;28;20304;-79
2022/05/08 00:36:26;;;;;;;17.95;11.05;;;;;;;9.03;92.90;102600.75;1035879;28;20311;-79
2022/05/08 00:36:58;;;;;;;21.45;11.80;;;;;;;9.06;92.96;102604.94;1039623;28;20296;-79
2022/05/08 00:37:29;;;;;;;19.33;11.50;;;;;;;9.08;92.79;102613.56;1043789;28;20677;-79
2022/05/08 00:38:01;;;;;;;18.45;11.07;;;;;;;9.05;92.14;102613.91;1039791;28;20299;-79
2022/05/08 00:38:33;;;;;;;31.77;11.95;;;;;;;9.01;92.83;102615.19;1039572;28;20318;-78
2022/05/08 00:39:04;;;;;;;20.25;11.70;;;;;;;8.95;92.86;102612.19;1039746;28;20295;-79
2022/05/08 00:39:36;;;;;;;19.50;11.82;;;;;;;8.94;93.30;102618.50;1039830;28;20801;-78
2022/05/08 00:40:08;;;;;;;20.35;12.02;;;;;;;8.97;92.57;102615.53;1040093;28;20378;-79
2022/05/08 00:40:39;;;;;;;22.92;11.68;;;;;;;8.97;93.18;102618.19;1041124;28;20302;-78
2022/05/08 00:41:11;;;;;;;18.40;10.48;;;;;;;8.89;92.68;102610.19;1043698;28;20299;-78
2022/05/08 00:41:42;;;;;;;20.63;11.15;;;;;;;8.98;93.21;102611.88;1043630;28;20416;-79
2022/05/08 00:42:14;;;;;;;25.98;12.30;;;;;;;8.97;92.81;102607.53;1043385;28;20348;-79
2022/05/08 00:42:46;;;;;;;22.27;12.45;;;;;;;8.98;93.44;102613.69;1039270;28;20350;-78
2022/05/08 00:43:24;;;;;;;22.77;11.05;;;;;;;9.02;93.35;102619.50;1039604;28;20292;-79
2022/05/08 00:43:55;;;;;;;25.70;11.15;;;;;;;9.03;92.35;102616.69;1038989;28;20284;-79
2022/05/08 00:44:27;;;;;;;30.95;12.38;;;;;;;9.04;92.42;102617.53;1043422;28;20313;-78
2022/05/08 00:44:58;;;;;;;21.77;11.90;;;;;;;9.02;92.30;102614.19;1039388;28;20299;-78
2022/05/08 00:45:30;;;;;;;18.80;11.50;;;;;;;9.06;92.73;102616.41;1039763;28;20778;-79
2022/05/08 00:46:06;;;;;;;19.75;11.85;;;;;;;9.06;92.73;102620.88;1039774;28;20296;-79
2022/05/08 00:46:38;;;;;;;15.73;11.10;;;;;;;9.01;93.22;102615.19;1040289;28;20300;-79
2022/05/08 00:47:10;;;;;;;26.73;13.30;;;;;;;9.04;92.30;102617.53;1043358;28;20642;-78
2022/05/08 00:47:41;;;;;;;20.63;11.55;;;;;;;9.11;93.10;102615.91;1043698;28;20299;-79
2022/05/08 00:48:14;;;;;;;29.17;12.15;;;;;;;9.02;92.34;102614.19;1043509;28;20361;-79
2022/05/08 00:48:45;;;;;;;17.17;12.15;;;;;;;8.98;92.58;102619.00;1043850;28;20307;-78
2022/05/08 00:49:17;;;;;;;19.63;11.30;;;;;;;9.00;92.75;102614.34;1043508;28;20708;-78
2022/05/08 00:49:49;;;;;;;22.55;11.43;;;;;;;8.95;93.06;102617.50;1035256;28;20305;-78
2022/05/08 00:50:20;;;;;;;14.68;11.02;;;;;;;9.01;93.08;102617.84;1031255;28;20309;-78
2022/05/08 00:50:52;;;;;;;21.17;12.27;;;;;;;9.02;92.92;102622.16;1031864;28;20313;-79
2022/05/08 00:51:24;;;;;;;19.05;10.30;;;;;;;9.03;92.33;102621.16;1031851;28;20320;-79
2022/05/08 00:51:56;;;;;;;21.17;10.68;;;;;;;8.99;92.58;102621.50;1031659;28;20317;-79
2022/05/08 00:52:29;;;;;;;20.63;10.43;;;;;;;8.91;92.42;102624.13;1035765;28;20299;-78
2022/05/08 00:53:03;;;;;;;20.85;10.75;;;;;;;8.93;92.33;102622.16;1040819;28;20365;-79
2022/05/08 00:53:37;;;;;;;23.48;11.48;;;;;;;8.94;92.70;102618.50;1043186;28;20310;-78
2022/05/08 00:54:09;;;;;;;22.80;11.77;;;;;;;8.96;92.91;102621.81;1043606;28;20307;-79
2022/05/08 00:54:40;;;;;;;27.45;10.90;;;;;;;8.93;92.81;102624.81;1039649;28;20666;-79
2022/05/08 00:55:12;;;;;;;18.63;10.23;;;;;;;8.91;92.53;102618.81;1035295;28;20300;-79
2022/05/08 00:55:44;;;;;;;19.85;10.05;;;;;;;8.95;93.20;102620.16;1031666;28;20312;-78
2022/05/08 00:56:19;;;;;;;17.58;10.98;;;;;;;8.88;93.27;102624.47;1032607;28;20290;-79
2022/05/08 00:56:53;;;;;;;23.30;11.20;;;;;;;8.87;92.54;102622.81;1032187;28;20304;-78
2022/05/08 00:57:24;;;;;;;20.67;11.80;;;;;;;8.87;92.96;102612.19;1032633;28;20810;-78
2022/05/08 00:57:56;;;;;;;19.45;10.70;;;;;;;8.88;93.09;102619.16;1036685;28;20343;-78
2022/05/08 00:58:27;;;;;;;18.08;10.45;;;;;;;8.84;92.73;102619.66;1036002;28;20289;-78
2022/05/08 00:58:59;;;;;;;22.10;12.23;;;;;;;8.85;93.22;102618.66;1039425;28;20853;-79
2022/05/08 00:59:31;;;;;;;22.80;12.18;;;;;;;8.87;92.58;102614.00;1031172;28;20305;-78
2022/05/08 01:00:04;;;;;;;25.77;12.85;;;;;;;8.83;92.59;102618.81;1036147;28;20355;-79
2022/05/08 01:00:43;;;;;;;24.58;12.57;;;;;;;8.83;93.44;102620.63;1035795;28;20869;-79
2022/05/08 01:01:15;;;;;;;22.25;13.50;;;;;;;8.84;93.07;102617.81;1038265;28;20049;-79
2022/05/08 01:01:46;;;;;;;23.38;12.38;;;;;;;8.82;93.44;102619.81;1039534;28;20363;-78
2022/05/08 01:02:18;;;;;;;20.10;11.85;;;;;;;8.85;93.20;102616.81;1039236;28;20422;-80
2022/05/08 01:02:50;;;;;;;24.48;11.60;;;;;;;8.83;93.19;102618.81;1040048;28;20606;-78
2022/05/08 01:03:21;;;;;;;22.20;11.40;;;;;;;8.78;93.38;102628.25;1043446;28;20299;-78
2022/05/08 01:03:53;;;;;;;23.67;11.38;;;;;;;8.72;93.24;102619.09;1043864;28;20680;-78
2022/05/08 01:04:24;;;;;;;26.52;11.20;;;;;;;8.73;93.16;102620.75;1043613;28;20303;-79
2022/05/08 01:04:56;;;;;;;27.02;11.63;;;;;;;8.78;93.15;102623.78;1043506;28;20314;-79
2022/05/08 01:05:29;;;;;;;23.55;11.93;;;;;;;8.79;92.90;102619.31;1043482;28;20291;-78
2022/05/08 01:06:05;;;;;;;21.90;11.50;;;;;;;8.76;93.39;102623.09;1041010;28;20367;-79
2022/05/08 01:06:37;;;;;;;26.15;11.38;;;;;;;8.73;92.88;102618.09;1043248;28;20788;-79
2022/05/08 01:07:10;;;;;;;22.05;10.95;;;;;;;8.77;92.42;102619.47;1039240;28;20304;-78
2022/05/08 01:07:42;;;;;;;23.25;12.02;;;;;;;8.78;92.84;102613.16;1041031;28;20307;-79
2022/05/08 01:08:14;;;;;;;24.85;11.50;;;;;;;8.75;92.30;102613.44;1036700;28;20304;-79
2022/05/08 01:08:48;;;;;;;28.42;10.55;;;;;;;8.71;92.14;102616.59;1035251;28;20296;-77
2022/05/08 01:09:19;;;;;;;34.90;12.48;;;;;;;8.65;92.40;102618.06;1035277;28;20297;-79
2022/05/08 01:09:51;;;;;;;25.48;11.27;;;;;;;8.61;92.81;102620.22;1036486;28;20296;-79
2022/05/08 01:10:22;;;;;;;24.92;9.93;;;;;;;8.58;92.16;102614.41;1037288;28;20340;-78
2022/05/08 01:10:55;;;;;;;18.67;9.73;;;;;;;8.61;91.69;102622.03;1043302;28;20303;-78
2022/05/08 01:11:27;;;;;;;26.55;10.68;;;;;;;8.57;91.84;102621.53;1043871;28;20373;-78
2022/05/08 01:11:59;;;;;;;24.67;10.75;;;;;;;8.56;92.32;102613.72;1043814;28;20307;-78
2022/05/08 01:12:32;;;;;;;25.05;9.65;;;;;;;8.61;92.25;102616.72;1043995;28;20306;-78
2022/05/08 01:13:07;;;;;;;28.40;12.50;;;;;;;8.59;92.07;102624.03;1043765;28;20638;-79
2022/05/08 01:13:40;;;;;;;21.50;8.63;;;;;;;8.51;91.47;102616.88;1039614;28;20299;-78
2022/05/08 01:14:13;;;;;;;26.67;11.23;;;;;;;8.51;91.80;102621.34;1035466;28;20329;-79
2022/05/08 01:14:44;;;;;;;29.30;11.32;;;;;;;8.53;91.89;102611.38;1032525;28;20424;-78
2022/05/08 01:15:18;;;;;;;28.63;10.88;;;;;;;8.46;91.75;102619.13;1035818;28;20288;-78
2022/05/08 01:15:50;;;;;;;26.67;9.98;;;;;;;8.48;91.49;102621.63;1032529;28;20297;-78
2022/05/08 01:16:22;;;;;;;29.42;9.82;;;;;;;8.47;92.00;102626.09;1035661;28;20308;-78
2022/05/08 01:16:53;;;;;;;35.92;10.25;;;;;;;8.53;91.92;102620.19;1035322;28;20354;-79
2022/05/08 01:17:25;;;;;;;25.83;9.18;;;;;;;8.52;92.09;102623.00;1036131;28;20315;-77
2022/05/08 01:17:57;;;;;;;24.45;10.80;;;;;;;8.48;91.36;102621.63;1038962;28;20296;-77
2022/05/08 01:18:29;;;;;;;29.38;9.73;;;;;;;8.47;91.38;102619.97;1040008;28;20786;-78
2022/05/08 01:19:01;;;;;;;23.77;9.50;;;;;;;8.41;91.37;102615.28;1039308;28;20888;-77
2022/05/08 01:19:33;;;;;;;24.25;9.68;;;;;;;8.42;91.20;102620.44;1042657;28;20316;-77
2022/05/08 01:20:05;;;;;;;24.42;9.82;;;;;;;8.49;90.79;102618.84;1039296;28;20311;-77
2022/05/08 01:20:37;;;;;;;29.17;10.40;;;;;;;8.49;90.69;102620.63;1037261;28;20655;-77
2022/05/08 01:21:11;;;;;;;22.27;7.90;;;;;;;8.38;90.68;102623.59;1038987;28;20303;-77
2022/05/08 01:21:43;;;;;;;31.45;10.68;;;;;;;8.44;89.98;102625.59;1035826;28;20296;-78
2022/05/08 01:22:14;;;;;;;30.02;10.13;;;;;;;8.48;90.40;102621.63;1030530;28;20811;-78
2022/05/08 01:22:46;;;;;;;32.33;9.65;;;;;;;8.50;90.45;102619.69;1031733;28;20309;-78
2022/05/08 01:23:21;;;;;;;29.95;9.20;;;;;;;8.47;90.47;102618.16;1034596;28;20300;-78
2022/05/08 01:23:53;;;;;;;28.67;9.90;;;;;;;8.51;89.99;102624.00;1031291;28;20297;-78
2022/05/08 01:24:24;;;;;;;33.75;10.38;;;;;;;8.47;90.34;102614.66;1032682;28;20297;-77
2022/05/08 01:24:57;;;;;;;27.17;9.00;;;;;;;8.49;90.12;102613.53;1035405;28;20304;-77
2022/05/08 01:25:29;;;;;;;25.33;10.63;;;;;;;8.44;90.20;102614.97;1036293;28;20387;-78
2022/05/08 01:26:03;;;;;;;34.38;9.63;;;;;;;8.45;90.21;102613.97;1039961;28;20306;-78
2022/05/08 01:26:34;;;;;;;38.03;10.25;;;;;;;8.41;90.40;102616.13;1043084;28;20824;-78
2022/05/08 01:27:06;;;;;;;31.25;10.70;;;;;;;8.45;90.36;102619.28;1043031;28;20300;-78
2022/05/08 01:27:37;;;;;;;23.80;8.60;;;;;;;8.43;90.02;102610.66;1040532;28;20300;-78
2022/05/08 01:28:09;;;;;;;15.85;7.80;;;;;;;8.43;89.88;102619.44;1038993;28;20308;-78
2022/05/08 01:28:41;;;;;;;26.10;9.32;;;;;;;8.45;90.27;102613.97;1039398;28;20342;-78
2022/05/08 01:29:13;;;;;;;29.50;9.52;;;;;;;8.44;90.05;102615.81;1039253;28;20426;-78
2022/05/08 01:29:45;;;;;;;24.65;9.18;;;;;;;8.41;90.19;102621.44;1042961;28;20310;-78
2022/05/08 01:30:17;;;;;;;29.55;9.82;;;;;;;8.40;90.27;102619.78;1043296;28;20306;-77
2022/05/08 01:30:51;;;;;;;26.88;8.18;;;;;;;8.43;89.89;102622.09;1043436;28;20817;-78
2022/05/08 01:31:22;;;;;;;28.17;8.23;;;;;;;8.44;89.70;102622.94;1043163;28;20294;-77
2022/05/08 01:31:54;;;;;;;32.67;8.18;;;;;;;8.44;90.13;102626.44;1039057;28;20315;-78
2022/05/08 01:32:25;;;;;;;23.95;8.82;;;;;;;8.43;89.24;102621.28;1039147;28;20390;-78
2022/05/08 01:32:58;;;;;;;26.13;9.23;;;;;;;8.45;89.43;102617.47;1039571;28;20304;-78
2022/05/08 01:33:29;;;;;;;23.48;9.93;;;;;;;8.43;88.97;102621.28;1039589;28;20303;-78
2022/05/08 01:34:01;;;;;;;28.08;8.90;;;;;;;8.42;89.06;102623.09;1043299;28;20935;-78
2022/05/08 01:34:33;;;;;;;23.38;6.75;;;;;;;8.45;88.85;102616.63;1043055;28;20400;-77
2022/05/08 01:35:07;;;;;;;25.33;7.53;;;;;;;8.43;88.80;102629.25;1042764;28;20287;-78
2022/05/08 01:35:40;;;;;;;23.90;8.47;;;;;;;8.46;88.93;102623.63;1006189;28;1070466;-78
2022/05/08 01:36:12;;;;;;;28.80;7.40;;;;;;;8.46;89.16;102623.63;1038753;28;20299;-78
2022/05/08 01:36:44;;;;;;;22.23;7.25;;;;;;;8.44;89.28;102626.44;1039059;28;20326;-77
2022/05/08 01:37:15;;;;;;;29.88;8.82;;;;;;;8.45;89.73;102624.59;1039564;28;20296;-77
2022/05/08 01:37:47;;;;;;;29.50;8.55;;;;;;;8.39;89.40;102625.25;1039508;28;20319;-77
2022/05/08 01:38:20;;;;;;;23.58;7.97;;;;;;;8.32;89.62;102628.50;1043095;28;20362;-78
2022/05/08 01:38:52;;;;;;;29.77;7.72;;;;;;;8.39;89.61;102622.59;1043407;28;20295;-77
2022/05/08 01:39:23;;;;;;;28.20;9.20;;;;;;;8.42;89.39;102627.59;1043160;28;20287;-77
2022/05/08 01:39:56;;;;;;;25.23;6.68;;;;;;;8.38;89.78;102631.53;1043245;28;20314;-78
2022/05/08 01:40:30;;;;;;;28.02;9.15;;;;;;;8.38;89.20;102621.75;1043282;28;20381;-77
2022/05/08 01:41:04;;;;;;;35.05;8.77;;;;;;;8.43;89.45;102621.28;1043367;28;20358;-78
2022/05/08 01:41:37;;;;;;;25.60;7.97;;;;;;;8.42;89.09;102632.88;1043086;28;20417;-78
2022/05/08 01:42:09;;;;;;;27.55;8.25;;;;;;;8.35;89.13;102630.88;1043438;28;20314;-78
2022/05/08 01:42:42;;;;;;;34.40;8.95;;;;;;;8.33;89.63;102635.50;1043642;28;20303;-77
2022/05/08 01:43:14;;;;;;;32.60;10.50;;;;;;;8.35;89.40;102632.69;1043010;28;20318;-78
2022/05/08 01:43:46;;;;;;;33.75;7.22;;;;;;;8.35;89.39;102633.53;1039241;28;20300;-78
2022/05/08 01:44:17;;;;;;;29.20;7.43;;;;;;;8.36;89.14;102629.88;1039396;28;20343;-78
2022/05/08 01:44:51;;;;;;;22.42;7.93;;;;;;;8.35;88.83;102632.69;1037447;28;20822;-78
2022/05/08 01:45:23;;;;;;;28.23;8.63;;;;;;;8.36;88.64;102635.19;1043409;28;20303;-78
2022/05/08 01:45:56;;;;;;;31.00;8.43;;;;;;;8.35;89.34;102638.00;1043694;28;20429;-77
2022/05/08 01:46:28;;;;;;;27.55;7.28;;;;;;;8.36;89.47;102634.38;1041128;28;20300;-78
2022/05/08 01:48:42;;;;;;;28.40;7.53;;;;;;;8.39;89.24;102633.22;1037117;28;20300;-78
2022/05/08 01:49:13;;;;;;;30.05;6.85;;;;;;;8.41;88.55;102636.53;1043029;28;20299;-78
2022/05/08 01:49:46;;;;;;;29.95;8.07;;;;;;;8.36;89.02;102635.19;1042852;28;20726;-78
2022/05/08 01:50:17;;;;;;;24.92;5.72;;;;;;;8.35;88.63;102638.00;1044554;28;20298;-78
2022/05/08 01:50:50;;;;;;;28.27;7.30;;;;;;;8.29;88.62;102643.91;1040850;28;20689;-78
2022/05/08 01:51:23;;;;;;;25.25;6.43;;;;;;;8.25;88.89;102640.75;1039652;28;20774;-78
2022/05/08 01:51:54;;;;;;;21.38;6.03;;;;;;;8.30;89.55;102634.97;1039711;28;20299;-78
2022/05/08 01:52:26;;;;;;;18.98;6.68;;;;;;;8.28;88.81;102642.25;1038796;28;20292;-78
2022/05/08 01:52:58;;;;;;;23.35;7.28;;;;;;;8.32;88.63;102648.91;1039731;28;20307;-78
2022/05/08 01:53:31;;;;;;;24.92;6.97;;;;;;;8.33;88.31;102640.81;1039315;28;20648;-78
2022/05/08 01:54:05;;;;;;;34.35;6.82;;;;;;;8.35;88.30;102638.00;1028798;28;20367;-78
2022/05/08 01:54:37;;;;;;;22.60;8.00;;;;;;;8.38;89.05;102636.84;1031006;28;20308;-78
2022/05/08 01:55:09;;;;;;;20.77;6.10;;;;;;;8.32;88.45;102636.47;1034667;28;20308;-78
2022/05/08 01:55:40;;;;;;;26.13;6.82;;;;;;;8.29;88.82;102636.78;1040339;28;20304;-78
2022/05/08 01:56:13;;;;;;;32.78;7.07;;;;;;;8.29;88.44;102643.91;1043348;28;20299;-78
2022/05/08 01:56:44;;;;;;;21.45;6.85;;;;;;;8.24;88.36;102636.44;1043035;28;20303;-78
2022/05/08 01:57:16;;;;;;;37.42;7.97;;;;;;;8.30;88.57;102640.28;1043501;28;20307;-78
2022/05/08 01:57:47;;;;;;;26.23;6.50;;;;;;;8.28;88.60;102637.78;1043207;28;20287;-77
2022/05/08 01:58:19;;;;;;;22.30;6.60;;;;;;;8.31;88.32;102642.78;1039132;28;20288;-77
2022/05/08 01:58:52;;;;;;;30.50;6.57;;;;;;;8.27;88.95;102636.13;1031068;28;20696;-77
2022/05/08 01:59:24;;;;;;;24.92;6.35;;;;;;;8.25;88.77;102643.41;1031549;28;20679;-78
2022/05/08 01:59:56;;;;;;;31.40;7.72;;;;;;;8.28;88.44;102643.09;1035815;28;20289;-79
2022/05/08 02:00:29;;;;;;;32.47;7.50;;;;;;;8.32;88.65;102639.13;1039797;28;20378;-78
2022/05/08 02:01:03;;;;;;;19.58;7.18;;;;;;;8.32;89.22;102643.59;1043454;28;20303;-78
2022/05/08 02:01:37;;;;;;;24.40;6.75;;;;;;;8.33;88.71;102640.81;1043065;28;20681;-78
2022/05/08 02:02:09;;;;;;;26.17;8.38;;;;;;;8.31;88.82;102639.28;1043612;28;20366;-77
2022/05/08 02:02:43;;;;;;;31.60;7.22;;;;;;;8.25;88.86;102634.59;1039087;28;20296;-78
2022/05/08 02:03:15;;;;;;;26.75;6.07;;;;;;;8.29;89.11;102638.59;1035902;28;20301;-78
2022/05/08 02:03:46;;;;;;;26.50;7.30;;;;;;;8.27;88.78;102641.44;1035173;28;20316;-78
2022/05/08 02:04:18;;;;;;;27.30;5.65;;;;;;;8.33;88.50;102639.97;1035137;28;20371;-78
2022/05/08 02:04:50;;;;;;;30.17;7.53;;;;;;;8.27;89.16;102644.06;1031866;28;20408;-77
2022/05/08 02:05:22;;;;;;;23.60;6.47;;;;;;;8.27;88.26;102641.44;1031665;28;20292;-78
2022/05/08 02:05:54;;;;;;;31.75;8.10;;;;;;;8.31;88.98;102641.94;1039056;28;20296;-78
2022/05/08 02:06:26;;;;;;;30.88;7.47;;;;;;;8.33;88.89;102640.81;1039751;28;20342;-78
2022/05/08 02:06:57;;;;;;;28.75;7.35;;;;;;;8.34;88.58;102644.31;1043057;28;20950;-78
2022/05/08 02:07:29;;;;;;;26.65;7.22;;;;;;;8.28;88.96;102635.13;1043783;28;20296;-78
2022/05/08 02:08:01;;;;;;;24.88;7.10;;;;;;;8.29;88.81;102644.75;1044818;28;20303;-78
2022/05/08 02:08:33;;;;;;;21.58;8.27;;;;;;;8.28;88.88;102643.09;1044590;28;20292;-79
2022/05/08 02:09:32;;;;;;;25.98;6.45;;;;;;;8.30;88.02;102641.09;1039554;28;20306;-78
2022/05/08 02:10:04;;;;;;;28.83;5.88;;;;;;;8.29;87.90;102644.75;1037577;28;20292;-78
2022/05/08 02:10:37;;;;;;;22.98;6.50;;;;;;;8.33;88.00;102638.16;1035639;28;20308;-78
2022/05/08 02:11:08;;;;;;;28.10;7.00;;;;;;;8.31;88.31;102648.09;1043334;28;20307;-78
2022/05/08 02:11:40;;;;;;;27.75;7.60;;;;;;;8.30;88.32;102646.41;1043838;28;20641;-79
2022/05/08 02:12:11;;;;;;;19.50;5.75;;;;;;;8.27;88.64;102640.59;1043542;28;20665;-78
2022/05/08 02:12:44;;;;;;;17.88;7.38;;;;;;;8.23;88.73;102637.41;1043365;28;20741;-78
2022/05/08 02:13:15;;;;;;;25.92;7.18;;;;;;;8.27;88.70;102646.72;1043651;28;20306;-78
2022/05/08 02:13:47;;;;;;;25.80;6.97;;;;;;;8.30;89.01;102646.41;1039227;28;20311;-78
2022/05/08 02:14:18;;;;;;;35.63;8.30;;;;;;;8.30;88.77;102645.59;1039959;28;20299;-78
2022/05/08 02:14:50;;;;;;;21.00;8.63;;;;;;;8.27;88.59;102641.44;1043644;28;20311;-78
2022/05/08 02:15:22;;;;;;;31.75;6.60;;;;;;;8.26;88.52;102645.06;1043585;28;20299;-78
2022/05/08 02:15:53;;;;;;;19.52;5.15;;;;;;;8.30;88.05;102641.09;1043504;28;20830;-79
2022/05/08 02:16:25;;;;;;;27.05;6.47;;;;;;;8.29;88.74;102641.25;1039433;28;20306;-78
2022/05/08 02:16:57;;;;;;;27.13;7.97;;;;;;;8.25;88.53;102648.72;1039242;28;20296;-78
2022/05/08 02:17:28;;;;;;;36.20;8.27;;;;;;;8.26;88.78;102639.75;1039366;28;20296;-78
2022/05/08 02:18:02;;;;;;;30.10;7.50;;;;;;;8.23;88.41;102640.06;1039939;28;20359;-78
2022/05/08 02:18:33;;;;;;;34.47;8.90;;;;;;;8.22;89.08;102638.41;1043247;28;20396;-78
2022/05/08 02:19:05;;;;;;;27.02;8.75;;;;;;;8.16;88.27;102640.84;1043083;28;20307;-78
2022/05/08 02:19:37;;;;;;;34.60;9.10;;;;;;;8.16;89.12;102646.97;1043527;28;20319;-79
2022/05/08 02:20:09;;;;;;;27.88;6.35;;;;;;;8.20;89.30;102648.31;1039151;28;20315;-78
2022/05/08 02:20:40;;;;;;;24.73;7.05;;;;;;;8.16;89.10;102643.50;1035625;28;20319;-79
2022/05/08 02:21:12;;;;;;;26.30;6.22;;;;;;;8.20;89.12;102645.66;1035397;28;20304;-78
2022/05/08 02:21:44;;;;;;;26.88;7.30;;;;;;;8.18;89.03;102642.34;1035405;28;20348;-78
2022/05/08 02:22:15;;;;;;;23.52;6.50;;;;;;;8.16;88.96;102639.00;1039961;28;20312;-78
2022/05/08 02:22:47;;;;;;;23.27;8.15;;;;;;;8.18;89.56;102644.16;1043549;28;20298;-79
2022/05/08 02:23:18;;;;;;;28.08;7.53;;;;;;;8.16;89.35;102635.53;1043100;28;20741;-78
2022/05/08 02:23:50;;;;;;;29.30;8.52;;;;;;;8.17;88.77;102639.84;1039581;28;20292;-78
2022/05/08 02:24:21;;;;;;;24.98;6.60;;;;;;;8.16;88.93;102644.31;1039467;28;20414;-78
2022/05/08 02:24:53;;;;;;;32.03;8.32;;;;;;;8.16;89.56;102639.00;1039736;28;20786;-78
2022/05/08 02:25:24;;;;;;;29.15;8.73;;;;;;;8.17;89.61;102645.16;1040039;28;20292;-78
2022/05/08 02:25:56;;;;;;;36.13;7.32;;;;;;;8.11;89.77;102641.31;1043239;28;20302;-78
2022/05/08 02:26:28;;;;;;;25.95;7.72;;;;;;;8.10;89.21;102644.94;1043575;28;20299;-77
2022/05/08 02:27:00;;;;;;;23.60;6.63;;;;;;;8.15;88.83;102645.31;1040424;28;20304;-78
2022/05/08 02:27:37;;;;;;;28.20;6.82;;;;;;;8.21;89.25;102646.50;1040113;28;20314;-78
2022/05/08 02:28:10;;;;;;;27.10;6.35;;;;;;;8.19;89.07;102640.53;1040015;28;20327;-78
2022/05/08 02:28:41;;;;;;;30.23;6.45;;;;;;;8.17;89.09;102643.34;1041516;28;20296;-78
2022/05/08 02:29:13;;;;;;;29.20;6.18;;;;;;;8.17;88.71;102645.97;1044566;28;20310;-77
2022/05/08 02:29:48;;;;;;;33.38;6.93;;;;;;;8.15;88.82;102642.66;1044241;28;20652;-78
2022/05/08 02:30:22;;;;;;;30.33;8.70;;;;;;;8.17;89.57;102645.16;1044705;28;20307;-78
2022/05/08 02:30:54;;;;;;;23.83;6.00;;;;;;;8.16;89.67;102649.63;1044451;28;20295;-78
2022/05/08 02:31:25;;;;;;;28.38;7.15;;;;;;;8.19;89.51;102644.00;1040098;28;20288;-79